sensor_id;sensor_type;location;lat;lon;timestamp;P1;durP1;ratioP1;P2;durP2;ratioP2
16612;SDS011;8419;52.358;9.752;2023-04-09T00:01:11;57.05;;;18.10;;
16612;SDS011;8419;52.358;9.752;2023-04-09T00:03:56;49.15;;;17.55;;
16612;SDS011;8419;52.358;9.752;2023-04-09T00:06:42;49.13;;;18.30;;
16612;SDS011;8419;52.358;9.752;2023-04-09T00:09:28;43.00;;;17.37;;
16612;SDS011;8419;52.358;9.752;2023-04-09T00:12:14;33.47;;;17.08;;
16612;SDS011;8419;52.358;9.752;2023-04-09T00:14:59;36.67;;;15.55;;
16612;SDS011;8419;52.358;9.752;2023-04-09T00:17:45;32.85;;;17.98;;
16612;SDS011;8419;52.358;9.752;2023-04-09T00:20:31;41.40;;;16.92;;
16612;SDS011;8419;52.358;9.752;2023-04-09T00:23:16;28.70;;;16.08;;
16612;SDS011;8419;52.358;9.752;2023-04-09T00:26:02;33.15;;;16.58;;
16612;SDS011;8419;52.358;9.752;2023-04-09T00:28:48;27.10;;;15.60;;
16612;SDS011;8419;52.358;9.752;2023-04-09T00:31:34;30.77;;;16.40;;
16612;SDS011;8419;52.358;9.752;2023-04-09T00:34:21;26.10;;;15.73;;
16612;SDS011;8419;52.358;9.752;2023-04-09T00:37:06;25.23;;;14.85;;
16612;SDS011;8419;52.358;9.752;2023-04-09T00:39:51;27.40;;;15.38;;
16612;SDS011;8419;52.358;9.752;2023-04-09T00:42:37;28.30;;;17.00;;
16612;SDS011;8419;52.358;9.752;2023-04-09T00:45:23;27.70;;;16.15;;
16612;SDS011;8419;52.358;9.752;2023-04-09T00:48:09;24.83;;;15.85;;
16612;SDS011;8419;52.358;9.752;2023-04-09T00:50:55;26.17;;;15.60;;
16612;SDS011;8419;52.358;9.752;2023-04-09T00:53:41;28.87;;;15.30;;
16612;SDS011;8419;52.358;9.752;2023-04-09T00:56:27;25.98;;;15.15;;
16612;SDS011;8419;52.358;9.752;2023-04-09T00:59:14;26.40;;;15.43;;
16612;SDS011;8419;52.358;9.752;2023-04-09T01:01:59;26.00;;;16.00;;
16612;SDS011;8419;52.358;9.752;2023-04-09T01:04:45;28.70;;;15.35;;
16612;SDS011;8419;52.358;9.752;2023-04-09T01:07:41;23.70;;;14.55;;
16612;SDS011;8419;52.358;9.752;2023-04-09T01:10:39;26.65;;;14.93;;
16612;SDS011;8419;52.358;9.752;2023-04-09T01:13:34;21.37;;;13.90;;
16612;SDS011;8419;52.358;9.752;2023-04-09T01:16:25;21.65;;;14.45;;
16612;SDS011;8419;52.358;9.752;2023-04-09T01:19:20;24.08;;;14.60;;
16612;SDS011;8419;52.358;9.752;2023-04-09T01:22:23;20.67;;;13.57;;
16612;SDS011;8419;52.358;9.752;2023-04-09T01:25:21;25.60;;;13.75;;
16612;SDS011;8419;52.358;9.752;2023-04-09T01:28:21;20.25;;;13.15;;
16612;SDS011;8419;52.358;9.752;2023-04-09T01:31:11;22.25;;;14.52;;
16612;SDS011;8419;52.358;9.752;2023-04-09T01:33:59;21.90;;;15.00;;
16612;SDS011;8419;52.358;9.752;2023-04-09T01:36:47;20.60;;;14.57;;
16612;SDS011;8419;52.358;9.752;2023-04-09T01:39:39;21.70;;;14.10;;
16612;SDS011;8419;52.358;9.752;2023-04-09T01:42:25;20.08;;;13.32;;
16612;SDS011;8419;52.358;9.752;2023-04-09T01:45:12;25.75;;;15.32;;
16612;SDS011;8419;52.358;9.752;2023-04-09T01:47:59;21.27;;;14.13;;
16612;SDS011;8419;52.358;9.752;2023-04-09T01:50:46;23.38;;;14.82;;
16612;SDS011;8419;52.358;9.752;2023-04-09T01:53:34;19.23;;;14.07;;
16612;SDS011;8419;52.358;9.752;2023-04-09T01:56:19;21.50;;;13.48;;
16612;SDS011;8419;52.358;9.752;2023-04-09T01:59:05;24.70;;;14.68;;
16612;SDS011;8419;52.358;9.752;2023-04-09T02:01:52;22.00;;;13.98;;
16612;SDS011;8419;52.358;9.752;2023-04-09T02:04:42;22.42;;;13.68;;
16612;SDS011;8419;52.358;9.752;2023-04-09T02:07:34;23.40;;;14.13;;
16612;SDS011;8419;52.358;9.752;2023-04-09T02:10:22;23.23;;;14.43;;
16612;SDS011;8419;52.358;9.752;2023-04-09T02:13:12;28.02;;;14.65;;
16612;SDS011;8419;52.358;9.752;2023-04-09T02:16:00;23.70;;;14.80;;
16612;SDS011;8419;52.358;9.752;2023-04-09T02:18:48;21.35;;;13.20;;
16612;SDS011;8419;52.358;9.752;2023-04-09T02:21:39;24.45;;;14.63;;
16612;SDS011;8419;52.358;9.752;2023-04-09T02:24:24;23.25;;;13.88;;
16612;SDS011;8419;52.358;9.752;2023-04-09T02:27:10;25.23;;;14.95;;
16612;SDS011;8419;52.358;9.752;2023-04-09T02:29:55;22.55;;;14.98;;
16612;SDS011;8419;52.358;9.752;2023-04-09T02:32:41;24.60;;;14.48;;
16612;SDS011;8419;52.358;9.752;2023-04-09T02:35:27;33.05;;;13.45;;
16612;SDS011;8419;52.358;9.752;2023-04-09T02:38:12;28.83;;;15.40;;
16612;SDS011;8419;52.358;9.752;2023-04-09T02:40:59;24.33;;;13.98;;
16612;SDS011;8419;52.358;9.752;2023-04-09T02:43:45;29.80;;;13.85;;
16612;SDS011;8419;52.358;9.752;2023-04-09T02:46:30;22.00;;;13.75;;
16612;SDS011;8419;52.358;9.752;2023-04-09T02:49:16;22.92;;;13.55;;
16612;SDS011;8419;52.358;9.752;2023-04-09T02:52:02;44.65;;;14.45;;
16612;SDS011;8419;52.358;9.752;2023-04-09T02:54:47;30.50;;;15.00;;
16612;SDS011;8419;52.358;9.752;2023-04-09T02:57:32;34.05;;;14.35;;
16612;SDS011;8419;52.358;9.752;2023-04-09T03:00:18;29.83;;;13.68;;
16612;SDS011;8419;52.358;9.752;2023-04-09T03:03:04;41.75;;;14.98;;
16612;SDS011;8419;52.358;9.752;2023-04-09T03:05:49;38.53;;;14.23;;
16612;SDS011;8419;52.358;9.752;2023-04-09T03:08:36;29.42;;;14.30;;
16612;SDS011;8419;52.358;9.752;2023-04-09T03:11:22;32.22;;;14.38;;
16612;SDS011;8419;52.358;9.752;2023-04-09T03:14:08;64.20;;;16.08;;
16612;SDS011;8419;52.358;9.752;2023-04-09T03:16:53;41.75;;;14.25;;
16612;SDS011;8419;52.358;9.752;2023-04-09T03:19:39;42.97;;;14.70;;
16612;SDS011;8419;52.358;9.752;2023-04-09T03:22:24;56.03;;;14.93;;
16612;SDS011;8419;52.358;9.752;2023-04-09T03:25:10;51.33;;;14.73;;
16612;SDS011;8419;52.358;9.752;2023-04-09T03:27:55;35.58;;;14.07;;
16612;SDS011;8419;52.358;9.752;2023-04-09T03:30:41;35.85;;;14.68;;
16612;SDS011;8419;52.358;9.752;2023-04-09T03:33:26;34.05;;;15.18;;
16612;SDS011;8419;52.358;9.752;2023-04-09T03:36:13;29.60;;;14.27;;
16612;SDS011;8419;52.358;9.752;2023-04-09T03:38:58;26.70;;;14.73;;
16612;SDS011;8419;52.358;9.752;2023-04-09T03:41:44;32.47;;;14.90;;
16612;SDS011;8419;52.358;9.752;2023-04-09T03:44:30;33.55;;;14.68;;
16612;SDS011;8419;52.358;9.752;2023-04-09T03:47:15;32.08;;;15.00;;
16612;SDS011;8419;52.358;9.752;2023-04-09T03:50:01;26.98;;;13.57;;
16612;SDS011;8419;52.358;9.752;2023-04-09T03:52:47;29.95;;;14.20;;
16612;SDS011;8419;52.358;9.752;2023-04-09T03:55:32;27.90;;;13.43;;
16612;SDS011;8419;52.358;9.752;2023-04-09T03:58:18;36.00;;;14.05;;
16612;SDS011;8419;52.358;9.752;2023-04-09T04:01:04;27.23;;;13.85;;
16612;SDS011;8419;52.358;9.752;2023-04-09T04:03:49;31.92;;;13.50;;
16612;SDS011;8419;52.358;9.752;2023-04-09T04:06:35;29.23;;;14.07;;
16612;SDS011;8419;52.358;9.752;2023-04-09T04:09:23;26.67;;;13.30;;
16612;SDS011;8419;52.358;9.752;2023-04-09T04:12:09;34.08;;;14.35;;
16612;SDS011;8419;52.358;9.752;2023-04-09T04:14:54;32.25;;;13.93;;
16612;SDS011;8419;52.358;9.752;2023-04-09T04:17:41;35.78;;;13.75;;
16612;SDS011;8419;52.358;9.752;2023-04-09T04:20:26;21.45;;;13.30;;
16612;SDS011;8419;52.358;9.752;2023-04-09T04:23:12;25.88;;;13.65;;
16612;SDS011;8419;52.358;9.752;2023-04-09T04:25:58;31.67;;;14.13;;
16612;SDS011;8419;52.358;9.752;2023-04-09T04:28:43;33.45;;;13.75;;
16612;SDS011;8419;52.358;9.752;2023-04-09T04:31:29;26.90;;;14.10;;
16612;SDS011;8419;52.358;9.752;2023-04-09T04:34:14;31.45;;;15.15;;
16612;SDS011;8419;52.358;9.752;2023-04-09T04:37:00;35.10;;;16.45;;
16612;SDS011;8419;52.358;9.752;2023-04-09T04:39:46;31.30;;;13.85;;
16612;SDS011;8419;52.358;9.752;2023-04-09T04:42:31;27.80;;;13.85;;
16612;SDS011;8419;52.358;9.752;2023-04-09T04:45:17;27.60;;;14.15;;
16612;SDS011;8419;52.358;9.752;2023-04-09T04:48:03;33.05;;;15.23;;
16612;SDS011;8419;52.358;9.752;2023-04-09T04:50:54;29.55;;;14.38;;
16612;SDS011;8419;52.358;9.752;2023-04-09T04:53:40;33.22;;;14.30;;
16612;SDS011;8419;52.358;9.752;2023-04-09T04:56:28;36.20;;;14.80;;
16612;SDS011;8419;52.358;9.752;2023-04-09T04:59:13;35.10;;;14.02;;
16612;SDS011;8419;52.358;9.752;2023-04-09T05:01:59;29.83;;;14.27;;
16612;SDS011;8419;52.358;9.752;2023-04-09T05:04:45;30.08;;;14.23;;
16612;SDS011;8419;52.358;9.752;2023-04-09T05:07:30;24.83;;;14.65;;
16612;SDS011;8419;52.358;9.752;2023-04-09T05:10:17;29.20;;;14.77;;
16612;SDS011;8419;52.358;9.752;2023-04-09T05:13:04;30.17;;;14.35;;
16612;SDS011;8419;52.358;9.752;2023-04-09T05:15:49;33.95;;;14.55;;
16612;SDS011;8419;52.358;9.752;2023-04-09T05:18:36;25.20;;;13.90;;
16612;SDS011;8419;52.358;9.752;2023-04-09T05:21:21;34.20;;;15.50;;
16612;SDS011;8419;52.358;9.752;2023-04-09T05:24:06;24.17;;;14.00;;
16612;SDS011;8419;52.358;9.752;2023-04-09T05:26:53;26.45;;;14.45;;
16612;SDS011;8419;52.358;9.752;2023-04-09T05:29:38;30.15;;;14.13;;
16612;SDS011;8419;52.358;9.752;2023-04-09T05:32:24;22.45;;;13.70;;
16612;SDS011;8419;52.358;9.752;2023-04-09T05:35:10;26.83;;;14.27;;
16612;SDS011;8419;52.358;9.752;2023-04-09T05:37:55;32.15;;;13.90;;
16612;SDS011;8419;52.358;9.752;2023-04-09T05:40:41;23.43;;;13.10;;
16612;SDS011;8419;52.358;9.752;2023-04-09T05:43:28;26.27;;;13.60;;
16612;SDS011;8419;52.358;9.752;2023-04-09T05:46:14;25.58;;;13.73;;
16612;SDS011;8419;52.358;9.752;2023-04-09T05:49:00;23.33;;;13.55;;
16612;SDS011;8419;52.358;9.752;2023-04-09T05:51:45;22.90;;;13.20;;
16612;SDS011;8419;52.358;9.752;2023-04-09T05:54:30;22.20;;;13.70;;
16612;SDS011;8419;52.358;9.752;2023-04-09T05:57:15;24.75;;;13.85;;
16612;SDS011;8419;52.358;9.752;2023-04-09T06:00:06;24.05;;;14.48;;
16612;SDS011;8419;52.358;9.752;2023-04-09T06:02:52;20.75;;;13.05;;
16612;SDS011;8419;52.358;9.752;2023-04-09T06:05:38;21.73;;;12.70;;
16612;SDS011;8419;52.358;9.752;2023-04-09T06:08:24;20.52;;;12.57;;
16612;SDS011;8419;52.358;9.752;2023-04-09T06:11:10;19.45;;;12.55;;
16612;SDS011;8419;52.358;9.752;2023-04-09T06:13:56;19.12;;;12.02;;
16612;SDS011;8419;52.358;9.752;2023-04-09T06:16:41;21.42;;;12.85;;
16612;SDS011;8419;52.358;9.752;2023-04-09T06:19:27;20.55;;;13.15;;
16612;SDS011;8419;52.358;9.752;2023-04-09T06:22:12;20.57;;;12.50;;
16612;SDS011;8419;52.358;9.752;2023-04-09T06:24:58;21.10;;;12.77;;
16612;SDS011;8419;52.358;9.752;2023-04-09T06:27:44;20.50;;;12.98;;
16612;SDS011;8419;52.358;9.752;2023-04-09T06:30:29;21.58;;;12.82;;
16612;SDS011;8419;52.358;9.752;2023-04-09T06:33:15;19.75;;;12.48;;
16612;SDS011;8419;52.358;9.752;2023-04-09T06:36:02;26.15;;;13.32;;
16612;SDS011;8419;52.358;9.752;2023-04-09T06:38:48;19.60;;;11.38;;
16612;SDS011;8419;52.358;9.752;2023-04-09T06:41:33;23.65;;;13.15;;
16612;SDS011;8419;52.358;9.752;2023-04-09T06:44:21;24.05;;;12.45;;
16612;SDS011;8419;52.358;9.752;2023-04-09T06:47:07;20.67;;;12.40;;
16612;SDS011;8419;52.358;9.752;2023-04-09T06:49:53;19.15;;;11.85;;
16612;SDS011;8419;52.358;9.752;2023-04-09T06:52:38;22.83;;;13.40;;
16612;SDS011;8419;52.358;9.752;2023-04-09T06:55:25;23.38;;;13.45;;
16612;SDS011;8419;52.358;9.752;2023-04-09T06:58:11;21.37;;;12.95;;
16612;SDS011;8419;52.358;9.752;2023-04-09T07:00:56;23.38;;;13.07;;
16612;SDS011;8419;52.358;9.752;2023-04-09T07:03:42;18.73;;;13.23;;
16612;SDS011;8419;52.358;9.752;2023-04-09T07:06:29;23.52;;;13.85;;
16612;SDS011;8419;52.358;9.752;2023-04-09T07:09:15;25.92;;;13.30;;
16612;SDS011;8419;52.358;9.752;2023-04-09T07:12:02;20.27;;;12.77;;
16612;SDS011;8419;52.358;9.752;2023-04-09T07:14:48;22.27;;;13.35;;
16612;SDS011;8419;52.358;9.752;2023-04-09T07:17:34;23.52;;;13.02;;
16612;SDS011;8419;52.358;9.752;2023-04-09T07:20:19;24.23;;;14.45;;
16612;SDS011;8419;52.358;9.752;2023-04-09T07:23:05;21.00;;;14.18;;
16612;SDS011;8419;52.358;9.752;2023-04-09T07:25:52;25.00;;;13.43;;
16612;SDS011;8419;52.358;9.752;2023-04-09T07:28:37;22.10;;;13.38;;
16612;SDS011;8419;52.358;9.752;2023-04-09T07:31:23;24.67;;;15.43;;
16612;SDS011;8419;52.358;9.752;2023-04-09T07:34:09;24.70;;;14.55;;
16612;SDS011;8419;52.358;9.752;2023-04-09T07:36:56;29.05;;;16.27;;
16612;SDS011;8419;52.358;9.752;2023-04-09T07:39:42;27.83;;;15.95;;
16612;SDS011;8419;52.358;9.752;2023-04-09T07:42:27;30.80;;;17.58;;
16612;SDS011;8419;52.358;9.752;2023-04-09T07:45:13;28.42;;;17.00;;
16612;SDS011;8419;52.358;9.752;2023-04-09T07:47:58;29.48;;;17.48;;
16612;SDS011;8419;52.358;9.752;2023-04-09T07:50:44;27.58;;;16.17;;
16612;SDS011;8419;52.358;9.752;2023-04-09T07:53:30;31.75;;;17.65;;
16612;SDS011;8419;52.358;9.752;2023-04-09T07:56:15;32.58;;;18.08;;
16612;SDS011;8419;52.358;9.752;2023-04-09T07:59:01;30.27;;;18.33;;
16612;SDS011;8419;52.358;9.752;2023-04-09T08:01:46;31.70;;;18.40;;
16612;SDS011;8419;52.358;9.752;2023-04-09T08:04:31;32.00;;;18.58;;
16612;SDS011;8419;52.358;9.752;2023-04-09T08:07:19;34.10;;;19.15;;
16612;SDS011;8419;52.358;9.752;2023-04-09T08:10:05;37.05;;;20.20;;
16612;SDS011;8419;52.358;9.752;2023-04-09T08:12:58;33.17;;;19.60;;
16612;SDS011;8419;52.358;9.752;2023-04-09T08:15:43;34.30;;;21.70;;
16612;SDS011;8419;52.358;9.752;2023-04-09T08:18:29;33.33;;;18.48;;
16612;SDS011;8419;52.358;9.752;2023-04-09T08:21:14;33.00;;;18.92;;
16612;SDS011;8419;52.358;9.752;2023-04-09T08:24:00;29.52;;;16.95;;
16612;SDS011;8419;52.358;9.752;2023-04-09T08:26:48;23.38;;;15.10;;
16612;SDS011;8419;52.358;9.752;2023-04-09T08:29:33;26.83;;;16.52;;
16612;SDS011;8419;52.358;9.752;2023-04-09T08:32:19;26.37;;;14.73;;
16612;SDS011;8419;52.358;9.752;2023-04-09T08:35:06;25.37;;;14.75;;
16612;SDS011;8419;52.358;9.752;2023-04-09T08:37:53;25.73;;;14.93;;
16612;SDS011;8419;52.358;9.752;2023-04-09T08:40:40;26.55;;;15.05;;
16612;SDS011;8419;52.358;9.752;2023-04-09T08:43:25;20.52;;;13.07;;
16612;SDS011;8419;52.358;9.752;2023-04-09T08:46:11;23.70;;;13.38;;
16612;SDS011;8419;52.358;9.752;2023-04-09T08:48:59;23.02;;;13.45;;
16612;SDS011;8419;52.358;9.752;2023-04-09T08:51:45;26.20;;;14.68;;
16612;SDS011;8419;52.358;9.752;2023-04-09T08:54:31;23.87;;;14.55;;
16612;SDS011;8419;52.358;9.752;2023-04-09T08:57:17;22.13;;;13.32;;
16612;SDS011;8419;52.358;9.752;2023-04-09T09:00:03;21.05;;;13.35;;
16612;SDS011;8419;52.358;9.752;2023-04-09T09:03:03;23.38;;;14.30;;
16612;SDS011;8419;52.358;9.752;2023-04-09T09:05:53;22.42;;;14.48;;
16612;SDS011;8419;52.358;9.752;2023-04-09T09:08:39;24.65;;;15.88;;
16612;SDS011;8419;52.358;9.752;2023-04-09T09:11:25;28.67;;;17.00;;
16612;SDS011;8419;52.358;9.752;2023-04-09T09:14:12;26.65;;;16.40;;
16612;SDS011;8419;52.358;9.752;2023-04-09T09:17:04;30.33;;;18.52;;
16612;SDS011;8419;52.358;9.752;2023-04-09T09:19:51;32.53;;;18.33;;
16612;SDS011;8419;52.358;9.752;2023-04-09T09:22:48;29.45;;;17.50;;
16612;SDS011;8419;52.358;9.752;2023-04-09T09:25:37;30.25;;;18.33;;
16612;SDS011;8419;52.358;9.752;2023-04-09T09:28:24;29.25;;;19.33;;
16612;SDS011;8419;52.358;9.752;2023-04-09T09:31:19;33.97;;;19.70;;
16612;SDS011;8419;52.358;9.752;2023-04-09T09:34:08;31.25;;;20.10;;
16612;SDS011;8419;52.358;9.752;2023-04-09T09:36:53;32.17;;;20.73;;
16612;SDS011;8419;52.358;9.752;2023-04-09T09:39:42;35.50;;;21.83;;
16612;SDS011;8419;52.358;9.752;2023-04-09T09:42:27;36.88;;;22.87;;
16612;SDS011;8419;52.358;9.752;2023-04-09T09:45:16;35.33;;;22.83;;
16612;SDS011;8419;52.358;9.752;2023-04-09T09:48:04;36.85;;;23.55;;
16612;SDS011;8419;52.358;9.752;2023-04-09T09:50:49;33.50;;;21.73;;
16612;SDS011;8419;52.358;9.752;2023-04-09T09:53:36;40.10;;;23.25;;
16612;SDS011;8419;52.358;9.752;2023-04-09T09:56:23;37.35;;;24.30;;
16612;SDS011;8419;52.358;9.752;2023-04-09T09:59:17;36.20;;;22.70;;
16612;SDS011;8419;52.358;9.752;2023-04-09T10:02:05;37.38;;;23.35;;
16612;SDS011;8419;52.358;9.752;2023-04-09T10:04:55;38.35;;;23.48;;
16612;SDS011;8419;52.358;9.752;2023-04-09T10:07:44;36.75;;;23.12;;
16612;SDS011;8419;52.358;9.752;2023-04-09T10:10:32;41.88;;;25.45;;
16612;SDS011;8419;52.358;9.752;2023-04-09T10:13:23;39.15;;;24.30;;
16612;SDS011;8419;52.358;9.752;2023-04-09T10:16:15;42.70;;;26.37;;
16612;SDS011;8419;52.358;9.752;2023-04-09T10:19:02;43.47;;;26.25;;
16612;SDS011;8419;52.358;9.752;2023-04-09T10:21:50;41.95;;;25.25;;
16612;SDS011;8419;52.358;9.752;2023-04-09T10:24:41;42.38;;;26.08;;
16612;SDS011;8419;52.358;9.752;2023-04-09T10:27:27;37.10;;;24.85;;
16612;SDS011;8419;52.358;9.752;2023-04-09T10:30:30;35.83;;;23.02;;
16612;SDS011;8419;52.358;9.752;2023-04-09T10:33:20;43.58;;;25.35;;
16612;SDS011;8419;52.358;9.752;2023-04-09T10:36:10;41.97;;;23.45;;
16612;SDS011;8419;52.358;9.752;2023-04-09T10:38:56;38.13;;;23.40;;
16612;SDS011;8419;52.358;9.752;2023-04-09T10:41:55;32.63;;;20.27;;
16612;SDS011;8419;52.358;9.752;2023-04-09T10:44:43;30.45;;;20.67;;
16612;SDS011;8419;52.358;9.752;2023-04-09T10:47:30;31.60;;;17.12;;
16612;SDS011;8419;52.358;9.752;2023-04-09T10:50:18;24.75;;;16.30;;
16612;SDS011;8419;52.358;9.752;2023-04-09T10:53:05;25.33;;;16.73;;
16612;SDS011;8419;52.358;9.752;2023-04-09T10:55:51;23.62;;;15.52;;
16612;SDS011;8419;52.358;9.752;2023-04-09T10:58:37;25.15;;;15.35;;
16612;SDS011;8419;52.358;9.752;2023-04-09T11:01:22;27.13;;;16.85;;
16612;SDS011;8419;52.358;9.752;2023-04-09T11:04:12;24.83;;;15.00;;
16612;SDS011;8419;52.358;9.752;2023-04-09T11:07:04;21.20;;;13.55;;
16612;SDS011;8419;52.358;9.752;2023-04-09T11:09:51;21.98;;;13.62;;
16612;SDS011;8419;52.358;9.752;2023-04-09T11:12:37;23.48;;;13.32;;
16612;SDS011;8419;52.358;9.752;2023-04-09T11:15:22;19.83;;;12.43;;
16612;SDS011;8419;52.358;9.752;2023-04-09T11:18:08;22.50;;;13.38;;
16612;SDS011;8419;52.358;9.752;2023-04-09T11:20:57;20.33;;;12.93;;
16612;SDS011;8419;52.358;9.752;2023-04-09T11:23:50;24.12;;;13.48;;
16612;SDS011;8419;52.358;9.752;2023-04-09T11:26:38;24.85;;;16.02;;
16612;SDS011;8419;52.358;9.752;2023-04-09T11:29:24;23.50;;;14.90;;
16612;SDS011;8419;52.358;9.752;2023-04-09T11:32:11;23.25;;;13.57;;
16612;SDS011;8419;52.358;9.752;2023-04-09T11:34:57;28.15;;;15.65;;
16612;SDS011;8419;52.358;9.752;2023-04-09T11:37:44;24.60;;;14.40;;
16612;SDS011;8419;52.358;9.752;2023-04-09T11:40:30;25.42;;;14.90;;
16612;SDS011;8419;52.358;9.752;2023-04-09T11:43:16;23.30;;;14.52;;
16612;SDS011;8419;52.358;9.752;2023-04-09T11:46:04;22.70;;;14.27;;
16612;SDS011;8419;52.358;9.752;2023-04-09T11:48:51;22.67;;;13.73;;
16612;SDS011;8419;52.358;9.752;2023-04-09T11:51:37;21.45;;;14.20;;
16612;SDS011;8419;52.358;9.752;2023-04-09T11:54:22;19.75;;;12.95;;
16612;SDS011;8419;52.358;9.752;2023-04-09T11:57:09;23.00;;;13.07;;
16612;SDS011;8419;52.358;9.752;2023-04-09T11:59:54;25.08;;;14.98;;
16612;SDS011;8419;52.358;9.752;2023-04-09T12:02:40;20.90;;;13.45;;
16612;SDS011;8419;52.358;9.752;2023-04-09T12:05:30;21.70;;;13.32;;
16612;SDS011;8419;52.358;9.752;2023-04-09T12:08:16;21.30;;;13.88;;
16612;SDS011;8419;52.358;9.752;2023-04-09T12:11:08;23.12;;;13.13;;
16612;SDS011;8419;52.358;9.752;2023-04-09T12:13:58;23.08;;;13.50;;
16612;SDS011;8419;52.358;9.752;2023-04-09T12:16:43;20.35;;;12.65;;
16612;SDS011;8419;52.358;9.752;2023-04-09T12:19:29;20.08;;;13.43;;
16612;SDS011;8419;52.358;9.752;2023-04-09T12:22:14;20.35;;;13.18;;
16612;SDS011;8419;52.358;9.752;2023-04-09T12:25:00;24.73;;;13.77;;
16612;SDS011;8419;52.358;9.752;2023-04-09T12:27:49;24.95;;;13.95;;
16612;SDS011;8419;52.358;9.752;2023-04-09T12:30:39;22.42;;;13.60;;
16612;SDS011;8419;52.358;9.752;2023-04-09T12:33:25;20.85;;;13.48;;
16612;SDS011;8419;52.358;9.752;2023-04-09T12:36:11;23.30;;;14.70;;
16612;SDS011;8419;52.358;9.752;2023-04-09T12:38:56;22.02;;;13.80;;
16612;SDS011;8419;52.358;9.752;2023-04-09T12:41:42;21.95;;;13.85;;
16612;SDS011;8419;52.358;9.752;2023-04-09T12:44:28;23.60;;;15.52;;
16612;SDS011;8419;52.358;9.752;2023-04-09T12:47:16;23.83;;;15.55;;
16612;SDS011;8419;52.358;9.752;2023-04-09T12:50:02;24.10;;;15.75;;
16612;SDS011;8419;52.358;9.752;2023-04-09T12:52:49;24.63;;;15.13;;
16612;SDS011;8419;52.358;9.752;2023-04-09T12:55:35;23.23;;;15.27;;
16612;SDS011;8419;52.358;9.752;2023-04-09T12:58:21;24.58;;;16.02;;
16612;SDS011;8419;52.358;9.752;2023-04-09T13:01:06;23.00;;;16.02;;
16612;SDS011;8419;52.358;9.752;2023-04-09T13:03:55;24.50;;;16.35;;
16612;SDS011;8419;52.358;9.752;2023-04-09T13:06:41;25.33;;;16.37;;
16612;SDS011;8419;52.358;9.752;2023-04-09T13:09:26;22.60;;;15.68;;
16612;SDS011;8419;52.358;9.752;2023-04-09T13:12:12;25.20;;;17.25;;
16612;SDS011;8419;52.358;9.752;2023-04-09T13:14:58;25.30;;;16.37;;
16612;SDS011;8419;52.358;9.752;2023-04-09T13:17:44;22.77;;;15.68;;
16612;SDS011;8419;52.358;9.752;2023-04-09T13:20:30;23.80;;;15.40;;
16612;SDS011;8419;52.358;9.752;2023-04-09T13:23:15;25.02;;;15.80;;
16612;SDS011;8419;52.358;9.752;2023-04-09T13:26:01;22.92;;;15.13;;
16612;SDS011;8419;52.358;9.752;2023-04-09T13:28:48;23.23;;;16.08;;
16612;SDS011;8419;52.358;9.752;2023-04-09T13:31:35;24.33;;;16.40;;
16612;SDS011;8419;52.358;9.752;2023-04-09T13:34:21;23.23;;;14.63;;
16612;SDS011;8419;52.358;9.752;2023-04-09T13:37:06;24.42;;;15.05;;
16612;SDS011;8419;52.358;9.752;2023-04-09T13:39:52;22.35;;;14.50;;
16612;SDS011;8419;52.358;9.752;2023-04-09T13:42:38;19.25;;;13.77;;
16612;SDS011;8419;52.358;9.752;2023-04-09T13:45:24;22.02;;;14.18;;
16612;SDS011;8419;52.358;9.752;2023-04-09T13:48:10;22.35;;;13.75;;
16612;SDS011;8419;52.358;9.752;2023-04-09T13:50:57;19.85;;;14.07;;
16612;SDS011;8419;52.358;9.752;2023-04-09T13:53:46;16.45;;;11.77;;
16612;SDS011;8419;52.358;9.752;2023-04-09T13:56:32;17.85;;;11.68;;
16612;SDS011;8419;52.358;9.752;2023-04-09T13:59:18;15.68;;;11.05;;
16612;SDS011;8419;52.358;9.752;2023-04-09T14:02:03;16.33;;;11.57;;
16612;SDS011;8419;52.358;9.752;2023-04-09T14:04:49;14.07;;;10.40;;
16612;SDS011;8419;52.358;9.752;2023-04-09T14:07:34;17.77;;;12.32;;
16612;SDS011;8419;52.358;9.752;2023-04-09T14:10:19;17.65;;;12.48;;
16612;SDS011;8419;52.358;9.752;2023-04-09T14:13:05;17.10;;;12.50;;
16612;SDS011;8419;52.358;9.752;2023-04-09T14:15:55;16.20;;;11.63;;
16612;SDS011;8419;52.358;9.752;2023-04-09T14:18:40;18.00;;;12.95;;
16612;SDS011;8419;52.358;9.752;2023-04-09T14:21:26;18.00;;;12.35;;
16612;SDS011;8419;52.358;9.752;2023-04-09T14:24:12;16.55;;;11.77;;
16612;SDS011;8419;52.358;9.752;2023-04-09T14:26:58;16.52;;;11.82;;
16612;SDS011;8419;52.358;9.752;2023-04-09T14:29:43;16.62;;;11.70;;
16612;SDS011;8419;52.358;9.752;2023-04-09T14:32:28;18.98;;;12.50;;
16612;SDS011;8419;52.358;9.752;2023-04-09T14:35:15;18.42;;;12.13;;
16612;SDS011;8419;52.358;9.752;2023-04-09T14:38:01;16.40;;;11.63;;
16612;SDS011;8419;52.358;9.752;2023-04-09T14:40:47;17.50;;;11.82;;
16612;SDS011;8419;52.358;9.752;2023-04-09T14:43:33;18.05;;;12.82;;
16612;SDS011;8419;52.358;9.752;2023-04-09T14:46:18;16.15;;;11.85;;
16612;SDS011;8419;52.358;9.752;2023-04-09T14:49:05;15.82;;;11.75;;
16612;SDS011;8419;52.358;9.752;2023-04-09T14:51:51;15.57;;;11.12;;
16612;SDS011;8419;52.358;9.752;2023-04-09T14:54:40;15.15;;;11.93;;
16612;SDS011;8419;52.358;9.752;2023-04-09T14:57:25;14.85;;;11.20;;
16612;SDS011;8419;52.358;9.752;2023-04-09T15:00:11;16.60;;;10.98;;
16612;SDS011;8419;52.358;9.752;2023-04-09T15:02:57;14.57;;;10.90;;
16612;SDS011;8419;52.358;9.752;2023-04-09T15:05:43;14.02;;;11.27;;
16612;SDS011;8419;52.358;9.752;2023-04-09T15:08:29;14.75;;;11.63;;
16612;SDS011;8419;52.358;9.752;2023-04-09T15:11:15;14.68;;;10.77;;
16612;SDS011;8419;52.358;9.752;2023-04-09T15:14:03;16.00;;;12.18;;
16612;SDS011;8419;52.358;9.752;2023-04-09T15:16:48;14.00;;;10.88;;
16612;SDS011;8419;52.358;9.752;2023-04-09T15:19:34;14.40;;;10.20;;
16612;SDS011;8419;52.358;9.752;2023-04-09T15:22:21;12.95;;;10.00;;
16612;SDS011;8419;52.358;9.752;2023-04-09T15:25:06;12.52;;;8.77;;
16612;SDS011;8419;52.358;9.752;2023-04-09T15:34:36;12.25;;;9.00;;
16612;SDS011;8419;52.358;9.752;2023-04-09T15:37:22;11.88;;;9.13;;
16612;SDS011;8419;52.358;9.752;2023-04-09T15:40:08;11.73;;;8.23;;
16612;SDS011;8419;52.358;9.752;2023-04-09T15:42:55;11.85;;;9.13;;
16612;SDS011;8419;52.358;9.752;2023-04-09T15:45:40;11.95;;;9.45;;
16612;SDS011;8419;52.358;9.752;2023-04-09T15:48:26;11.93;;;9.20;;
16612;SDS011;8419;52.358;9.752;2023-04-09T15:51:12;11.50;;;9.00;;
16612;SDS011;8419;52.358;9.752;2023-04-09T15:53:58;13.90;;;9.35;;
16612;SDS011;8419;52.358;9.752;2023-04-09T15:56:44;11.10;;;8.65;;
16612;SDS011;8419;52.358;9.752;2023-04-09T15:59:29;11.43;;;8.57;;
16612;SDS011;8419;52.358;9.752;2023-04-09T16:02:15;12.70;;;9.48;;
16612;SDS011;8419;52.358;9.752;2023-04-09T16:05:00;11.82;;;8.80;;
16612;SDS011;8419;52.358;9.752;2023-04-09T16:07:45;13.88;;;9.57;;
16612;SDS011;8419;52.358;9.752;2023-04-09T16:10:34;10.93;;;8.55;;
16612;SDS011;8419;52.358;9.752;2023-04-09T16:13:20;13.65;;;10.35;;
16612;SDS011;8419;52.358;9.752;2023-04-09T16:16:06;15.18;;;10.05;;
16612;SDS011;8419;52.358;9.752;2023-04-09T16:18:51;14.05;;;10.20;;
16612;SDS011;8419;52.358;9.752;2023-04-09T16:21:37;13.85;;;9.82;;
16612;SDS011;8419;52.358;9.752;2023-04-09T16:24:27;12.63;;;9.55;;
16612;SDS011;8419;52.358;9.752;2023-04-09T16:27:14;12.70;;;8.73;;
16612;SDS011;8419;52.358;9.752;2023-04-09T16:29:59;12.88;;;9.60;;
16612;SDS011;8419;52.358;9.752;2023-04-09T16:32:45;15.13;;;9.90;;
16612;SDS011;8419;52.358;9.752;2023-04-09T16:35:30;13.35;;;9.60;;
16612;SDS011;8419;52.358;9.752;2023-04-09T16:38:16;12.63;;;9.48;;